PROFILE

 METAR AND TAF INFORMATION
ADDS - METARS form results

(0446 UTC 25 April 2019)
http://aviationweather.gov/metar/data/
 
LFRS 250430Z AUTO 19007KT 9999 ///TCU 09/08 Q0997 TEMPO 18015G25KT SHRA
LFRS 250400Z AUTO 18007KT 9999 SCT028 BKN068 BKN078 09/08 Q0997 TEMPO 18015G25KT SHRA BKN020TCU
TAF LFRS 242300Z 2500/2606 16008KT 9999 SCT030 BKN050 TEMPO 2500/2515 18015G25KT SHRA BKN020TCU PROB40 TEMPO 2509/2515 18020G35KT 2000 TSRAGS BKN012 BKN020CB TEMPO 2515/2606 SHRA BKN020TCU SCT050CB 

 AIRPORT MAP

 RUNWAY INFORMATION
Runway 03 Runway length 9514 ft Runway width 148 ft
Runway elevation 73 ft Runway displaced threshold 0 ft Runway heading 28
Runway 21 Runway length 9514 ft Runway width 148 ft
Runway elevation 86 ft Runway displaced threshold 694 ft Runway heading 208

 AIRPORT FREQUENCIES
Type APP Name APP Frequency 130.275 MHZ
Type ATIS Name ATIS Frequency 126.925 MHZ
Type GND Name GND Frequency 121.875 MHZ
Type INFO Name INFO Frequency 129.875 MHZ
Type TWR Name TWR Frequency 118.65 MHZ

 AIRPORT NEAR NAVIGATION AIDS
Type NDB Name Nantes Frequency 369 KHZ
Type VOR-DME Name Nantes Frequency 115500 KHZ